sensor_id;sensor_type;location;lat;lon;timestamp;temperature;humidity
52159;DHT22;38145;53.182;6.284;2022-07-03T00:01:20;18.60;99.90
52159;DHT22;38145;53.182;6.284;2022-07-03T00:03:46;18.60;99.90
52159;DHT22;38145;53.182;6.284;2022-07-03T00:06:12;18.50;99.90
52159;DHT22;38145;53.182;6.284;2022-07-03T00:08:38;18.50;99.90
52159;DHT22;38145;53.182;6.284;2022-07-03T00:11:06;18.50;99.90
52159;DHT22;38145;53.182;6.284;2022-07-03T00:13:32;18.50;99.90
52159;DHT22;38145;53.182;6.284;2022-07-03T00:15:58;18.50;99.90
52159;DHT22;38145;53.182;6.284;2022-07-03T00:18:24;18.50;99.90
52159;DHT22;38145;53.182;6.284;2022-07-03T00:20:59;18.50;99.90
52159;DHT22;38145;53.182;6.284;2022-07-03T00:23:28;18.50;99.90
52159;DHT22;38145;53.182;6.284;2022-07-03T00:25:55;18.50;99.90
52159;DHT22;38145;53.182;6.284;2022-07-03T00:28:24;18.50;99.90
52159;DHT22;38145;53.182;6.284;2022-07-03T00:30:52;18.40;99.90
52159;DHT22;38145;53.182;6.284;2022-07-03T00:33:18;18.40;99.90
52159;DHT22;38145;53.182;6.284;2022-07-03T00:35:47;18.40;99.90
52159;DHT22;38145;53.182;6.284;2022-07-03T00:38:16;18.40;99.90
52159;DHT22;38145;53.182;6.284;2022-07-03T00:40:41;18.30;99.90
52159;DHT22;38145;53.182;6.284;2022-07-03T00:43:09;18.20;99.90
52159;DHT22;38145;53.182;6.284;2022-07-03T00:45:35;18.10;99.90
52159;DHT22;38145;53.182;6.284;2022-07-03T00:48:02;18.00;99.90
52159;DHT22;38145;53.182;6.284;2022-07-03T00:50:35;18.00;99.90
52159;DHT22;38145;53.182;6.284;2022-07-03T00:53:02;17.90;99.90
52159;DHT22;38145;53.182;6.284;2022-07-03T00:55:29;17.90;99.90
52159;DHT22;38145;53.182;6.284;2022-07-03T00:57:56;17.90;99.90
52159;DHT22;38145;53.182;6.284;2022-07-03T01:00:23;17.80;99.90
52159;DHT22;38145;53.182;6.284;2022-07-03T01:03:00;17.70;99.90
52159;DHT22;38145;53.182;6.284;2022-07-03T01:05:35;17.70;99.90
52159;DHT22;38145;53.182;6.284;2022-07-03T01:08:11;17.70;99.90
52159;DHT22;38145;53.182;6.284;2022-07-03T01:10:47;17.70;99.90
52159;DHT22;38145;53.182;6.284;2022-07-03T01:15:59;17.50;99.90
52159;DHT22;38145;53.182;6.284;2022-07-03T01:21:06;17.40;99.90
52159;DHT22;38145;53.182;6.284;2022-07-03T01:26:27;17.20;99.90
52159;DHT22;38145;53.182;6.284;2022-07-03T01:28:59;17.00;99.90
52159;DHT22;38145;53.182;6.284;2022-07-03T01:31:30;17.00;99.90
52159;DHT22;38145;53.182;6.284;2022-07-03T01:33:56;16.90;99.90
52159;DHT22;38145;53.182;6.284;2022-07-03T01:36:24;16.90;99.90
52159;DHT22;38145;53.182;6.284;2022-07-03T01:38:55;16.80;99.90
52159;DHT22;38145;53.182;6.284;2022-07-03T01:41:27;16.90;99.90
52159;DHT22;38145;53.182;6.284;2022-07-03T01:43:56;16.90;99.90
52159;DHT22;38145;53.182;6.284;2022-07-03T01:46:28;16.80;99.90
52159;DHT22;38145;53.182;6.284;2022-07-03T01:48:55;16.80;99.90
52159;DHT22;38145;53.182;6.284;2022-07-03T01:51:21;16.90;99.90
52159;DHT22;38145;53.182;6.284;2022-07-03T01:53:49;16.90;99.90
52159;DHT22;38145;53.182;6.284;2022-07-03T01:56:17;16.80;99.90
52159;DHT22;38145;53.182;6.284;2022-07-03T01:58:43;16.80;99.90
52159;DHT22;38145;53.182;6.284;2022-07-03T02:01:25;16.70;99.90
52159;DHT22;38145;53.182;6.284;2022-07-03T02:04:04;16.60;99.90
52159;DHT22;38145;53.182;6.284;2022-07-03T02:06:53;16.60;99.90
52159;DHT22;38145;53.182;6.284;2022-07-03T02:09:31;16.50;99.90
52159;DHT22;38145;53.182;6.284;2022-07-03T02:12:00;16.30;99.90
52159;DHT22;38145;53.182;6.284;2022-07-03T02:14:32;16.30;99.90
52159;DHT22;38145;53.182;6.284;2022-07-03T02:19:53;16.30;99.90
52159;DHT22;38145;53.182;6.284;2022-07-03T02:22:28;16.30;99.90
52159;DHT22;38145;53.182;6.284;2022-07-03T02:25:03;16.40;99.90
52159;DHT22;38145;53.182;6.284;2022-07-03T02:27:32;16.40;99.90
52159;DHT22;38145;53.182;6.284;2022-07-03T02:30:05;16.40;99.90
52159;DHT22;38145;53.182;6.284;2022-07-03T02:32:38;16.30;99.90
52159;DHT22;38145;53.182;6.284;2022-07-03T02:35:08;16.30;99.90
52159;DHT22;38145;53.182;6.284;2022-07-03T02:37:50;16.30;99.90
52159;DHT22;38145;53.182;6.284;2022-07-03T02:40:24;16.30;99.90
52159;DHT22;38145;53.182;6.284;2022-07-03T02:43:28;16.20;99.90
52159;DHT22;38145;53.182;6.284;2022-07-03T02:46:00;16.10;99.90
52159;DHT22;38145;53.182;6.284;2022-07-03T02:48:51;16.10;99.90
52159;DHT22;38145;53.182;6.284;2022-07-03T02:51:22;16.00;99.90
52159;DHT22;38145;53.182;6.284;2022-07-03T02:53:58;15.90;99.90
52159;DHT22;38145;53.182;6.284;2022-07-03T02:56:37;15.80;99.90
52159;DHT22;38145;53.182;6.284;2022-07-03T02:59:45;15.80;99.90
52159;DHT22;38145;53.182;6.284;2022-07-03T03:02:19;15.80;99.90
52159;DHT22;38145;53.182;6.284;2022-07-03T03:04:57;15.80;99.90
52159;DHT22;38145;53.182;6.284;2022-07-03T03:07:33;15.70;99.90
52159;DHT22;38145;53.182;6.284;2022-07-03T03:10:01;15.70;99.90
52159;DHT22;38145;53.182;6.284;2022-07-03T03:12:31;15.80;99.90
52159;DHT22;38145;53.182;6.284;2022-07-03T03:15:02;15.70;99.90
52159;DHT22;38145;53.182;6.284;2022-07-03T03:17:36;15.70;99.90
52159;DHT22;38145;53.182;6.284;2022-07-03T03:20:02;15.80;99.90
52159;DHT22;38145;53.182;6.284;2022-07-03T03:22:49;15.70;99.90
52159;DHT22;38145;53.182;6.284;2022-07-03T03:25:18;15.70;99.90
52159;DHT22;38145;53.182;6.284;2022-07-03T03:27:44;15.70;99.90
52159;DHT22;38145;53.182;6.284;2022-07-03T03:30:10;15.70;99.90
52159;DHT22;38145;53.182;6.284;2022-07-03T03:32:38;15.60;99.90
52159;DHT22;38145;53.182;6.284;2022-07-03T03:35:05;15.70;99.90
52159;DHT22;38145;53.182;6.284;2022-07-03T03:37:31;15.70;99.90
52159;DHT22;38145;53.182;6.284;2022-07-03T03:39:57;15.80;99.90
52159;DHT22;38145;53.182;6.284;2022-07-03T03:42:23;15.70;99.90
52159;DHT22;38145;53.182;6.284;2022-07-03T03:44:49;15.70;99.90
52159;DHT22;38145;53.182;6.284;2022-07-03T03:47:15;15.70;99.90
52159;DHT22;38145;53.182;6.284;2022-07-03T03:49:41;15.70;99.90
52159;DHT22;38145;53.182;6.284;2022-07-03T03:52:07;15.70;99.90
52159;DHT22;38145;53.182;6.284;2022-07-03T03:54:32;15.70;99.90
52159;DHT22;38145;53.182;6.284;2022-07-03T03:57:16;15.70;99.90
52159;DHT22;38145;53.182;6.284;2022-07-03T03:59:42;15.50;99.90
52159;DHT22;38145;53.182;6.284;2022-07-03T04:02:08;15.50;99.90
52159;DHT22;38145;53.182;6.284;2022-07-03T04:04:33;15.50;99.90
52159;DHT22;38145;53.182;6.284;2022-07-03T04:06:59;15.50;99.90
52159;DHT22;38145;53.182;6.284;2022-07-03T04:09:25;15.60;99.90
52159;DHT22;38145;53.182;6.284;2022-07-03T04:11:51;15.60;99.90
52159;DHT22;38145;53.182;6.284;2022-07-03T04:14:16;15.50;99.90
52159;DHT22;38145;53.182;6.284;2022-07-03T04:16:42;15.60;99.90
52159;DHT22;38145;53.182;6.284;2022-07-03T04:19:08;15.60;99.90
52159;DHT22;38145;53.182;6.284;2022-07-03T04:21:34;15.60;99.90
52159;DHT22;38145;53.182;6.284;2022-07-03T04:24:00;15.70;99.90
52159;DHT22;38145;53.182;6.284;2022-07-03T04:26:26;15.70;99.90
52159;DHT22;38145;53.182;6.284;2022-07-03T04:28:52;15.70;99.90
52159;DHT22;38145;53.182;6.284;2022-07-03T04:31:18;15.80;99.90
52159;DHT22;38145;53.182;6.284;2022-07-03T04:33:43;15.80;99.90
52159;DHT22;38145;53.182;6.284;2022-07-03T04:36:09;15.90;99.90
52159;DHT22;38145;53.182;6.284;2022-07-03T04:38:35;15.90;99.90
52159;DHT22;38145;53.182;6.284;2022-07-03T04:41:01;15.90;99.90
52159;DHT22;38145;53.182;6.284;2022-07-03T04:43:26;16.00;99.90
52159;DHT22;38145;53.182;6.284;2022-07-03T04:45:52;16.00;99.90
52159;DHT22;38145;53.182;6.284;2022-07-03T04:48:18;16.10;99.90
52159;DHT22;38145;53.182;6.284;2022-07-03T04:50:44;16.10;99.90
52159;DHT22;38145;53.182;6.284;2022-07-03T04:53:10;16.20;99.90
52159;DHT22;38145;53.182;6.284;2022-07-03T04:55:36;16.30;99.90
52159;DHT22;38145;53.182;6.284;2022-07-03T04:58:01;16.30;99.90
52159;DHT22;38145;53.182;6.284;2022-07-03T05:00:27;16.40;99.90
52159;DHT22;38145;53.182;6.284;2022-07-03T05:02:53;16.50;99.90
52159;DHT22;38145;53.182;6.284;2022-07-03T05:05:19;16.60;99.90
52159;DHT22;38145;53.182;6.284;2022-07-03T05:07:45;16.70;99.90
52159;DHT22;38145;53.182;6.284;2022-07-03T05:10:11;16.80;99.90
52159;DHT22;38145;53.182;6.284;2022-07-03T05:12:37;16.90;99.90
52159;DHT22;38145;53.182;6.284;2022-07-03T05:15:03;17.00;99.90
52159;DHT22;38145;53.182;6.284;2022-07-03T05:17:28;17.10;99.90
52159;DHT22;38145;53.182;6.284;2022-07-03T05:19:54;17.10;99.90
52159;DHT22;38145;53.182;6.284;2022-07-03T05:22:39;17.20;99.90
52159;DHT22;38145;53.182;6.284;2022-07-03T05:25:05;17.30;99.90
52159;DHT22;38145;53.182;6.284;2022-07-03T05:27:34;17.30;99.90
52159;DHT22;38145;53.182;6.284;2022-07-03T05:30:00;17.30;99.90
52159;DHT22;38145;53.182;6.284;2022-07-03T05:32:26;17.30;99.90
52159;DHT22;38145;53.182;6.284;2022-07-03T05:34:52;17.40;99.90
52159;DHT22;38145;53.182;6.284;2022-07-03T05:37:17;17.40;99.90
52159;DHT22;38145;53.182;6.284;2022-07-03T05:39:43;17.50;99.90
52159;DHT22;38145;53.182;6.284;2022-07-03T05:42:09;17.50;99.90
52159;DHT22;38145;53.182;6.284;2022-07-03T05:44:35;17.60;99.90
52159;DHT22;38145;53.182;6.284;2022-07-03T05:47:00;17.60;99.90
52159;DHT22;38145;53.182;6.284;2022-07-03T05:49:26;17.70;99.90
52159;DHT22;38145;53.182;6.284;2022-07-03T05:51:52;17.70;99.90
52159;DHT22;38145;53.182;6.284;2022-07-03T05:54:18;17.80;99.90
52159;DHT22;38145;53.182;6.284;2022-07-03T05:56:44;17.80;99.90
52159;DHT22;38145;53.182;6.284;2022-07-03T05:59:10;17.90;99.90
52159;DHT22;38145;53.182;6.284;2022-07-03T06:01:36;17.90;99.90
52159;DHT22;38145;53.182;6.284;2022-07-03T06:04:02;18.00;99.90
52159;DHT22;38145;53.182;6.284;2022-07-03T06:06:27;18.00;99.90
52159;DHT22;38145;53.182;6.284;2022-07-03T06:08:53;18.00;99.90
52159;DHT22;38145;53.182;6.284;2022-07-03T06:11:19;18.00;99.90
52159;DHT22;38145;53.182;6.284;2022-07-03T06:13:45;18.10;99.90
52159;DHT22;38145;53.182;6.284;2022-07-03T06:16:11;18.10;99.90
52159;DHT22;38145;53.182;6.284;2022-07-03T06:18:37;18.10;99.90
52159;DHT22;38145;53.182;6.284;2022-07-03T06:21:03;18.10;99.90
52159;DHT22;38145;53.182;6.284;2022-07-03T06:23:29;18.20;99.90
52159;DHT22;38145;53.182;6.284;2022-07-03T06:25:55;18.30;99.90
52159;DHT22;38145;53.182;6.284;2022-07-03T06:28:21;18.40;99.90
52159;DHT22;38145;53.182;6.284;2022-07-03T06:30:47;18.40;99.90
52159;DHT22;38145;53.182;6.284;2022-07-03T06:33:14;18.40;99.90
52159;DHT22;38145;53.182;6.284;2022-07-03T06:35:40;18.40;99.90
52159;DHT22;38145;53.182;6.284;2022-07-03T06:38:05;18.40;99.90
52159;DHT22;38145;53.182;6.284;2022-07-03T06:40:31;18.30;99.90
52159;DHT22;38145;53.182;6.284;2022-07-03T06:42:57;18.30;99.90
52159;DHT22;38145;53.182;6.284;2022-07-03T06:45:23;18.20;99.90
52159;DHT22;38145;53.182;6.284;2022-07-03T06:47:49;18.40;99.90
52159;DHT22;38145;53.182;6.284;2022-07-03T06:50:15;18.40;99.90
52159;DHT22;38145;53.182;6.284;2022-07-03T06:52:41;18.50;99.90
52159;DHT22;38145;53.182;6.284;2022-07-03T06:55:07;18.60;99.90
52159;DHT22;38145;53.182;6.284;2022-07-03T06:57:33;18.70;99.90
52159;DHT22;38145;53.182;6.284;2022-07-03T06:59:59;18.90;99.90
52159;DHT22;38145;53.182;6.284;2022-07-03T07:02:25;19.00;99.90
52159;DHT22;38145;53.182;6.284;2022-07-03T07:04:52;19.30;99.90
52159;DHT22;38145;53.182;6.284;2022-07-03T07:07:20;19.30;99.90
52159;DHT22;38145;53.182;6.284;2022-07-03T07:09:50;19.30;99.90
52159;DHT22;38145;53.182;6.284;2022-07-03T07:12:18;19.20;99.90
52159;DHT22;38145;53.182;6.284;2022-07-03T07:14:44;19.10;99.90
52159;DHT22;38145;53.182;6.284;2022-07-03T07:17:09;19.10;99.90
52159;DHT22;38145;53.182;6.284;2022-07-03T07:19:35;19.10;99.90
52159;DHT22;38145;53.182;6.284;2022-07-03T07:22:02;19.10;99.90
52159;DHT22;38145;53.182;6.284;2022-07-03T07:24:28;19.10;99.90
52159;DHT22;38145;53.182;6.284;2022-07-03T07:26:54;19.10;99.90
52159;DHT22;38145;53.182;6.284;2022-07-03T07:29:20;19.20;99.90
52159;DHT22;38145;53.182;6.284;2022-07-03T07:31:46;19.60;99.90
52159;DHT22;38145;53.182;6.284;2022-07-03T07:34:12;20.20;99.90
52159;DHT22;38145;53.182;6.284;2022-07-03T07:36:39;20.70;99.90
52159;DHT22;38145;53.182;6.284;2022-07-03T07:39:05;21.20;99.90
52159;DHT22;38145;53.182;6.284;2022-07-03T07:41:31;21.80;99.90
52159;DHT22;38145;53.182;6.284;2022-07-03T07:43:57;22.00;99.90
52159;DHT22;38145;53.182;6.284;2022-07-03T07:46:24;22.20;99.90
52159;DHT22;38145;53.182;6.284;2022-07-03T07:48:50;22.40;99.90
52159;DHT22;38145;53.182;6.284;2022-07-03T07:51:16;22.50;99.90
52159;DHT22;38145;53.182;6.284;2022-07-03T07:53:41;22.70;99.90
52159;DHT22;38145;53.182;6.284;2022-07-03T07:56:07;22.90;99.90
52159;DHT22;38145;53.182;6.284;2022-07-03T07:58:33;23.20;99.90
52159;DHT22;38145;53.182;6.284;2022-07-03T08:00:59;23.20;99.90
52159;DHT22;38145;53.182;6.284;2022-07-03T08:03:43;23.50;99.90
52159;DHT22;38145;53.182;6.284;2022-07-03T08:06:28;23.60;99.90
52159;DHT22;38145;53.182;6.284;2022-07-03T08:08:53;23.80;99.90
52159;DHT22;38145;53.182;6.284;2022-07-03T08:11:19;24.00;99.90
52159;DHT22;38145;53.182;6.284;2022-07-03T08:13:45;24.40;99.90
52159;DHT22;38145;53.182;6.284;2022-07-03T08:16:12;24.60;99.90
52159;DHT22;38145;53.182;6.284;2022-07-03T08:18:38;24.80;99.90
52159;DHT22;38145;53.182;6.284;2022-07-03T08:21:04;24.80;99.90
52159;DHT22;38145;53.182;6.284;2022-07-03T08:23:30;24.80;99.90
52159;DHT22;38145;53.182;6.284;2022-07-03T08:25:56;24.80;99.90
52159;DHT22;38145;53.182;6.284;2022-07-03T08:28:21;24.80;99.90
52159;DHT22;38145;53.182;6.284;2022-07-03T08:30:48;24.80;99.90
52159;DHT22;38145;53.182;6.284;2022-07-03T08:33:14;25.00;99.90
52159;DHT22;38145;53.182;6.284;2022-07-03T08:35:40;25.00;99.90
52159;DHT22;38145;53.182;6.284;2022-07-03T08:38:06;25.30;99.90
52159;DHT22;38145;53.182;6.284;2022-07-03T08:40:33;25.40;99.90
52159;DHT22;38145;53.182;6.284;2022-07-03T08:42:59;25.30;99.90
52159;DHT22;38145;53.182;6.284;2022-07-03T08:45:33;25.40;99.90
52159;DHT22;38145;53.182;6.284;2022-07-03T08:48:02;25.50;99.90
52159;DHT22;38145;53.182;6.284;2022-07-03T08:50:32;25.40;99.90
52159;DHT22;38145;53.182;6.284;2022-07-03T08:52:59;25.30;99.90
52159;DHT22;38145;53.182;6.284;2022-07-03T08:55:26;25.40;99.90
52159;DHT22;38145;53.182;6.284;2022-07-03T08:57:54;25.40;99.90
52159;DHT22;38145;53.182;6.284;2022-07-03T09:00:21;25.50;99.90
52159;DHT22;38145;53.182;6.284;2022-07-03T09:02:48;25.50;99.90
52159;DHT22;38145;53.182;6.284;2022-07-03T09:05:16;25.80;99.90
52159;DHT22;38145;53.182;6.284;2022-07-03T09:07:44;25.70;99.90
52159;DHT22;38145;53.182;6.284;2022-07-03T09:10:12;25.70;99.90
52159;DHT22;38145;53.182;6.284;2022-07-03T09:12:39;25.60;99.80
52159;DHT22;38145;53.182;6.284;2022-07-03T09:15:06;25.80;99.90
52159;DHT22;38145;53.182;6.284;2022-07-03T09:17:33;25.70;99.90
52159;DHT22;38145;53.182;6.284;2022-07-03T09:20:02;25.50;99.90
52159;DHT22;38145;53.182;6.284;2022-07-03T09:22:31;25.20;99.90
52159;DHT22;38145;53.182;6.284;2022-07-03T09:25:09;24.80;99.90
52159;DHT22;38145;53.182;6.284;2022-07-03T09:27:36;24.50;99.90
52159;DHT22;38145;53.182;6.284;2022-07-03T09:30:05;24.40;99.90
52159;DHT22;38145;53.182;6.284;2022-07-03T09:32:41;23.90;99.90
52159;DHT22;38145;53.182;6.284;2022-07-03T09:35:17;24.20;99.90
52159;DHT22;38145;53.182;6.284;2022-07-03T09:37:52;24.20;99.90
52159;DHT22;38145;53.182;6.284;2022-07-03T09:40:19;24.40;99.90
52159;DHT22;38145;53.182;6.284;2022-07-03T09:45:26;24.20;99.90
52159;DHT22;38145;53.182;6.284;2022-07-03T09:47:52;24.50;99.90
52159;DHT22;38145;53.182;6.284;2022-07-03T09:50:18;24.90;99.90
52159;DHT22;38145;53.182;6.284;2022-07-03T09:52:46;24.70;99.90
52159;DHT22;38145;53.182;6.284;2022-07-03T09:55:13;24.40;99.90
52159;DHT22;38145;53.182;6.284;2022-07-03T09:57:43;24.20;99.90
52159;DHT22;38145;53.182;6.284;2022-07-03T10:00:17;24.10;99.90
52159;DHT22;38145;53.182;6.284;2022-07-03T10:03:07;24.20;99.90
52159;DHT22;38145;53.182;6.284;2022-07-03T10:05:36;24.50;99.90
52159;DHT22;38145;53.182;6.284;2022-07-03T10:08:05;24.70;99.90
52159;DHT22;38145;53.182;6.284;2022-07-03T10:10:34;24.60;99.90
52159;DHT22;38145;53.182;6.284;2022-07-03T10:13:01;24.90;99.90
52159;DHT22;38145;53.182;6.284;2022-07-03T10:15:28;25.00;99.90
52159;DHT22;38145;53.182;6.284;2022-07-03T10:17:56;25.40;99.90
52159;DHT22;38145;53.182;6.284;2022-07-03T10:22:56;25.60;99.90
52159;DHT22;38145;53.182;6.284;2022-07-03T10:25:23;25.60;99.90
52159;DHT22;38145;53.182;6.284;2022-07-03T10:27:49;25.60;99.90
52159;DHT22;38145;53.182;6.284;2022-07-03T10:30:17;25.30;99.90
52159;DHT22;38145;53.182;6.284;2022-07-03T10:32:47;25.20;99.90
52159;DHT22;38145;53.182;6.284;2022-07-03T10:35:21;24.80;99.90
52159;DHT22;38145;53.182;6.284;2022-07-03T10:37:58;24.50;99.90
52159;DHT22;38145;53.182;6.284;2022-07-03T10:40:40;24.10;99.90
52159;DHT22;38145;53.182;6.284;2022-07-03T10:43:28;23.80;99.90
52159;DHT22;38145;53.182;6.284;2022-07-03T10:46:15;23.50;99.90
52159;DHT22;38145;53.182;6.284;2022-07-03T10:48:56;23.40;99.90
52159;DHT22;38145;53.182;6.284;2022-07-03T10:51:22;23.30;99.90
52159;DHT22;38145;53.182;6.284;2022-07-03T10:53:49;23.20;99.90
52159;DHT22;38145;53.182;6.284;2022-07-03T10:56:15;23.60;99.90
52159;DHT22;38145;53.182;6.284;2022-07-03T11:03:54;24.40;99.90
52159;DHT22;38145;53.182;6.284;2022-07-03T11:09:11;23.90;99.90
52159;DHT22;38145;53.182;6.284;2022-07-03T11:11:43;23.70;99.90
52159;DHT22;38145;53.182;6.284;2022-07-03T11:14:22;23.30;99.90
52159;DHT22;38145;53.182;6.284;2022-07-03T11:16:48;23.10;99.90
52159;DHT22;38145;53.182;6.284;2022-07-03T11:19:15;23.20;99.90
52159;DHT22;38145;53.182;6.284;2022-07-03T11:21:55;23.60;99.90
52159;DHT22;38145;53.182;6.284;2022-07-03T11:24:39;24.20;99.90
52159;DHT22;38145;53.182;6.284;2022-07-03T11:27:21;24.10;99.90
52159;DHT22;38145;53.182;6.284;2022-07-03T11:29:54;23.90;99.90
52159;DHT22;38145;53.182;6.284;2022-07-03T11:32:43;23.70;99.90
52159;DHT22;38145;53.182;6.284;2022-07-03T11:35:47;23.40;99.90
52159;DHT22;38145;53.182;6.284;2022-07-03T11:38:25;23.20;99.90
52159;DHT22;38145;53.182;6.284;2022-07-03T11:40:54;23.10;99.90
52159;DHT22;38145;53.182;6.284;2022-07-03T11:43:21;23.20;99.90
52159;DHT22;38145;53.182;6.284;2022-07-03T11:45:48;23.00;99.90
52159;DHT22;38145;53.182;6.284;2022-07-03T11:48:17;23.00;99.90
52159;DHT22;38145;53.182;6.284;2022-07-03T11:50:45;22.80;99.90
52159;DHT22;38145;53.182;6.284;2022-07-03T11:53:23;22.70;99.90
52159;DHT22;38145;53.182;6.284;2022-07-03T11:55:58;22.80;99.90
52159;DHT22;38145;53.182;6.284;2022-07-03T11:58:25;22.70;99.90
52159;DHT22;38145;53.182;6.284;2022-07-03T12:01:04;23.00;99.90
52159;DHT22;38145;53.182;6.284;2022-07-03T12:03:30;23.20;99.90
52159;DHT22;38145;53.182;6.284;2022-07-03T12:05:57;23.50;99.90
52159;DHT22;38145;53.182;6.284;2022-07-03T12:08:24;23.60;99.90
52159;DHT22;38145;53.182;6.284;2022-07-03T12:10:56;23.80;99.90
52159;DHT22;38145;53.182;6.284;2022-07-03T12:13:23;24.10;99.90
52159;DHT22;38145;53.182;6.284;2022-07-03T12:15:49;24.00;99.90
52159;DHT22;38145;53.182;6.284;2022-07-03T12:18:15;23.80;99.90
52159;DHT22;38145;53.182;6.284;2022-07-03T12:20:42;23.60;99.90
52159;DHT22;38145;53.182;6.284;2022-07-03T12:23:08;23.60;99.90
52159;DHT22;38145;53.182;6.284;2022-07-03T12:25:39;23.60;99.90
52159;DHT22;38145;53.182;6.284;2022-07-03T12:28:09;23.70;99.90
52159;DHT22;38145;53.182;6.284;2022-07-03T12:30:36;23.70;99.90
52159;DHT22;38145;53.182;6.284;2022-07-03T12:33:03;23.80;99.90
52159;DHT22;38145;53.182;6.284;2022-07-03T12:35:29;23.70;99.90
52159;DHT22;38145;53.182;6.284;2022-07-03T12:37:55;23.50;99.90
52159;DHT22;38145;53.182;6.284;2022-07-03T12:40:21;23.30;99.90
52159;DHT22;38145;53.182;6.284;2022-07-03T12:42:49;23.40;99.90
52159;DHT22;38145;53.182;6.284;2022-07-03T12:45:17;23.70;99.90
52159;DHT22;38145;53.182;6.284;2022-07-03T12:47:44;23.90;99.90
52159;DHT22;38145;53.182;6.284;2022-07-03T12:50:10;24.10;99.90
52159;DHT22;38145;53.182;6.284;2022-07-03T12:52:54;24.20;99.90
52159;DHT22;38145;53.182;6.284;2022-07-03T12:55:23;24.40;99.90
52159;DHT22;38145;53.182;6.284;2022-07-03T12:57:50;24.40;99.90
52159;DHT22;38145;53.182;6.284;2022-07-03T13:00:43;24.20;99.90
52159;DHT22;38145;53.182;6.284;2022-07-03T13:03:26;24.10;99.90
52159;DHT22;38145;53.182;6.284;2022-07-03T13:05:52;23.80;99.90
52159;DHT22;38145;53.182;6.284;2022-07-03T13:08:18;23.50;99.90
52159;DHT22;38145;53.182;6.284;2022-07-03T13:10:44;23.30;99.90
52159;DHT22;38145;53.182;6.284;2022-07-03T13:13:10;22.90;99.90
52159;DHT22;38145;53.182;6.284;2022-07-03T13:15:35;22.50;99.90
52159;DHT22;38145;53.182;6.284;2022-07-03T13:18:01;22.40;99.90
52159;DHT22;38145;53.182;6.284;2022-07-03T13:20:29;22.10;99.90
52159;DHT22;38145;53.182;6.284;2022-07-03T13:22:58;22.10;99.90
52159;DHT22;38145;53.182;6.284;2022-07-03T13:25:24;22.00;99.90
52159;DHT22;38145;53.182;6.284;2022-07-03T13:27:50;22.10;99.90
52159;DHT22;38145;53.182;6.284;2022-07-03T13:30:18;22.10;99.90
52159;DHT22;38145;53.182;6.284;2022-07-03T13:32:44;22.00;99.90
52159;DHT22;38145;53.182;6.284;2022-07-03T13:35:10;22.00;99.90
52159;DHT22;38145;53.182;6.284;2022-07-03T13:37:36;22.00;99.90
52159;DHT22;38145;53.182;6.284;2022-07-03T13:40:03;22.00;99.90
52159;DHT22;38145;53.182;6.284;2022-07-03T13:42:30;21.90;99.90
52159;DHT22;38145;53.182;6.284;2022-07-03T13:44:56;21.90;99.90
52159;DHT22;38145;53.182;6.284;2022-07-03T13:47:22;21.70;99.90
52159;DHT22;38145;53.182;6.284;2022-07-03T13:49:48;21.60;99.90
52159;DHT22;38145;53.182;6.284;2022-07-03T13:52:14;21.50;99.90
52159;DHT22;38145;53.182;6.284;2022-07-03T13:54:40;21.40;99.90
52159;DHT22;38145;53.182;6.284;2022-07-03T13:57:06;21.20;99.90
52159;DHT22;38145;53.182;6.284;2022-07-03T13:59:32;21.00;99.90
52159;DHT22;38145;53.182;6.284;2022-07-03T14:01:58;20.90;99.90
52159;DHT22;38145;53.182;6.284;2022-07-03T14:04:24;20.70;99.90
52159;DHT22;38145;53.182;6.284;2022-07-03T14:06:50;20.50;99.90
52159;DHT22;38145;53.182;6.284;2022-07-03T14:09:16;20.30;99.90
52159;DHT22;38145;53.182;6.284;2022-07-03T14:11:42;20.10;99.90
52159;DHT22;38145;53.182;6.284;2022-07-03T14:14:09;19.90;99.90
52159;DHT22;38145;53.182;6.284;2022-07-03T14:16:35;19.80;99.90
52159;DHT22;38145;53.182;6.284;2022-07-03T14:19:01;19.70;99.90
52159;DHT22;38145;53.182;6.284;2022-07-03T14:21:29;19.70;99.90
52159;DHT22;38145;53.182;6.284;2022-07-03T14:23:55;19.70;99.90
52159;DHT22;38145;53.182;6.284;2022-07-03T14:26:21;19.70;99.90
52159;DHT22;38145;53.182;6.284;2022-07-03T14:29:07;19.70;99.90
52159;DHT22;38145;53.182;6.284;2022-07-03T14:31:53;19.80;99.90
52159;DHT22;38145;53.182;6.284;2022-07-03T14:34:38;19.90;99.90
52159;DHT22;38145;53.182;6.284;2022-07-03T14:37:05;20.00;99.90
52159;DHT22;38145;53.182;6.284;2022-07-03T14:39:30;20.00;99.90
52159;DHT22;38145;53.182;6.284;2022-07-03T14:41:56;20.00;99.90
52159;DHT22;38145;53.182;6.284;2022-07-03T14:44:22;20.00;99.90
52159;DHT22;38145;53.182;6.284;2022-07-03T14:46:51;20.00;99.90
52159;DHT22;38145;53.182;6.284;2022-07-03T14:49:18;19.90;99.90
52159;DHT22;38145;53.182;6.284;2022-07-03T14:51:44;19.80;99.90
52159;DHT22;38145;53.182;6.284;2022-07-03T14:54:11;19.70;99.90
52159;DHT22;38145;53.182;6.284;2022-07-03T14:56:40;19.70;99.90
52159;DHT22;38145;53.182;6.284;2022-07-03T14:59:09;19.60;99.90
52159;DHT22;38145;53.182;6.284;2022-07-03T15:01:40;19.50;99.90
52159;DHT22;38145;53.182;6.284;2022-07-03T15:04:19;19.50;99.90
52159;DHT22;38145;53.182;6.284;2022-07-03T15:06:46;19.60;99.90
52159;DHT22;38145;53.182;6.284;2022-07-03T15:09:19;19.60;99.90
52159;DHT22;38145;53.182;6.284;2022-07-03T15:11:55;19.70;99.90
52159;DHT22;38145;53.182;6.284;2022-07-03T15:14:42;19.80;99.90
52159;DHT22;38145;53.182;6.284;2022-07-03T15:17:09;20.00;99.90
52159;DHT22;38145;53.182;6.284;2022-07-03T15:19:35;20.00;99.90
52159;DHT22;38145;53.182;6.284;2022-07-03T15:22:03;19.90;99.90
52159;DHT22;38145;53.182;6.284;2022-07-03T15:24:30;19.80;99.90
52159;DHT22;38145;53.182;6.284;2022-07-03T15:26:57;19.70;99.90
52159;DHT22;38145;53.182;6.284;2022-07-03T15:29:23;19.60;99.90
52159;DHT22;38145;53.182;6.284;2022-07-03T15:31:49;19.50;99.90
52159;DHT22;38145;53.182;6.284;2022-07-03T15:34:15;19.40;99.90
52159;DHT22;38145;53.182;6.284;2022-07-03T15:36:53;19.30;99.90
52159;DHT22;38145;53.182;6.284;2022-07-03T15:39:30;19.10;99.90
52159;DHT22;38145;53.182;6.284;2022-07-03T15:44:47;19.00;99.90
52159;DHT22;38145;53.182;6.284;2022-07-03T15:47:29;19.00;99.90
52159;DHT22;38145;53.182;6.284;2022-07-03T15:49:58;19.00;99.90
52159;DHT22;38145;53.182;6.284;2022-07-03T15:52:28;19.10;99.90
52159;DHT22;38145;53.182;6.284;2022-07-03T15:55:05;19.00;99.90
52159;DHT22;38145;53.182;6.284;2022-07-03T15:57:49;19.10;99.90
52159;DHT22;38145;53.182;6.284;2022-07-03T16:00:19;19.10;99.90
52159;DHT22;38145;53.182;6.284;2022-07-03T16:05:26;19.20;99.90
52159;DHT22;38145;53.182;6.284;2022-07-03T16:07:53;19.20;99.90
52159;DHT22;38145;53.182;6.284;2022-07-03T16:10:21;19.20;99.90
52159;DHT22;38145;53.182;6.284;2022-07-03T16:12:47;19.20;99.90